Churchill Airport
CYYQ : now visible

Airfield :











YOU CAN JOIN US ON...

 
LOGIN :

Register | Disclaimer

   EN    FR    IT 

 









Legend :    VFR   Marginal VFR   IFR   Intensive IFR   Very Intensive IFR
Visi :
Ceiling :
>= 8 km
>= 3000ft
5 to 8 km
1000 to 3000 ft
1500m to 5 km
500 to 1000 ft
800 to 1500m
200 to 500 ft
< 800m
< 200 ft
Symbols :   Thunderstorms  Fog  Heavy snow  Heavy precipitations  Wind > 20 kt






- Airport Elevation : 94 ft
- IATA code : YYQ


CYYQ - Churchill

CURRENT METAR :
  • 202000Z 33012KT 15SM SCT028 BKN055 06/02 A2983 RMK SC3SC3 SLP104

EXPIRED METARs :
  • 201900Z 35010G15KT 15SM FEW020 BKN060 05/02 A2982 RMK CU1SC6 SLP101
  • 201846Z 36013KT 15SM FEW020 BKN060 05/02 A2982 RMK CU1SC6 SLP100
  • 201800Z 35015G21KT 15SM -SHRA FEW021 BKN040 OVC060 06/03 A2981 RMK CU1SC5SC2 SLP097

TAF TAF CYYQ
Valid from the 20 at 18:00 until the 21 at 18:00 UTC


201739Z 2018/2118 35015G25KT P6SM SCT020 BKN060
TEMPO 2018/2103 P6SM -SHRA BKN020
BECMG 2022/2024 33012KT
FM210300 33012KT P6SM SCT015 BKN030
FM210900 31010KT P6SM SCT020 BKN050
TEMPO 2109/2118 BKN020 RMK NXT FCST BY 210000Z
CZWG FIR / North America



MET'MAP, your aeronautical weather chart ! - Copyright ORBIFLY December 2007 - Disclaimer

ORBIFLY MET'MAP TEAM :

Programming & Development : Alexandra Zaïnal
Concept & original design : Baudouin d'Aumeries
Assistance for programming : Marc-Olivier Méhu
Technical & hardware support : Manuel Goepfert

Contact : metmap@orbifly.com




SOURCES & CREDITS :

   NOAA       Earth
Advisory